sensor_id;sensor_type;location;lat;lon;timestamp;temperature;humidity
52615;DHT22;38508;53.158;6.614;2023-05-23T00:00:54;16.20;99.90
52615;DHT22;38508;53.158;6.614;2023-05-23T00:03:23;16.10;99.90
52615;DHT22;38508;53.158;6.614;2023-05-23T00:05:49;16.10;99.90
52615;DHT22;38508;53.158;6.614;2023-05-23T00:08:16;16.30;99.90
52615;DHT22;38508;53.158;6.614;2023-05-23T00:10:42;16.20;99.90
52615;DHT22;38508;53.158;6.614;2023-05-23T00:13:08;16.20;99.90
52615;DHT22;38508;53.158;6.614;2023-05-23T00:15:34;16.30;99.90
52615;DHT22;38508;53.158;6.614;2023-05-23T00:18:02;16.30;99.90
52615;DHT22;38508;53.158;6.614;2023-05-23T00:20:28;16.20;99.90
52615;DHT22;38508;53.158;6.614;2023-05-23T00:22:55;16.20;99.90
52615;DHT22;38508;53.158;6.614;2023-05-23T00:25:25;16.30;99.90
52615;DHT22;38508;53.158;6.614;2023-05-23T00:28:03;16.20;99.90
52615;DHT22;38508;53.158;6.614;2023-05-23T00:30:29;16.10;99.90
52615;DHT22;38508;53.158;6.614;2023-05-23T00:32:56;16.20;99.90
52615;DHT22;38508;53.158;6.614;2023-05-23T00:35:22;16.30;99.90
52615;DHT22;38508;53.158;6.614;2023-05-23T00:37:50;16.40;99.90
52615;DHT22;38508;53.158;6.614;2023-05-23T00:40:17;16.40;99.90
52615;DHT22;38508;53.158;6.614;2023-05-23T00:42:43;16.40;99.90
52615;DHT22;38508;53.158;6.614;2023-05-23T00:45:09;16.30;99.90
52615;DHT22;38508;53.158;6.614;2023-05-23T00:47:40;16.20;99.90
52615;DHT22;38508;53.158;6.614;2023-05-23T00:50:08;16.10;99.90
52615;DHT22;38508;53.158;6.614;2023-05-23T00:52:35;16.00;99.90
52615;DHT22;38508;53.158;6.614;2023-05-23T00:55:01;16.00;99.90
52615;DHT22;38508;53.158;6.614;2023-05-23T00:57:27;16.10;99.90
52615;DHT22;38508;53.158;6.614;2023-05-23T00:59:53;16.10;99.90
52615;DHT22;38508;53.158;6.614;2023-05-23T01:02:19;16.10;99.90
52615;DHT22;38508;53.158;6.614;2023-05-23T01:04:48;15.90;99.90
52615;DHT22;38508;53.158;6.614;2023-05-23T01:07:19;15.80;99.90
52615;DHT22;38508;53.158;6.614;2023-05-23T01:09:45;15.80;99.90
52615;DHT22;38508;53.158;6.614;2023-05-23T01:15:07;15.70;99.90
52615;DHT22;38508;53.158;6.614;2023-05-23T01:20:33;15.80;99.90
52615;DHT22;38508;53.158;6.614;2023-05-23T01:23:22;15.80;99.90
52615;DHT22;38508;53.158;6.614;2023-05-23T01:28:57;15.70;99.90
52615;DHT22;38508;53.158;6.614;2023-05-23T01:31:25;15.70;99.90
52615;DHT22;38508;53.158;6.614;2023-05-23T01:33:53;15.60;99.90
52615;DHT22;38508;53.158;6.614;2023-05-23T01:36:21;15.50;99.90
52615;DHT22;38508;53.158;6.614;2023-05-23T01:38:47;15.60;99.90
52615;DHT22;38508;53.158;6.614;2023-05-23T01:41:12;15.50;99.90
52615;DHT22;38508;53.158;6.614;2023-05-23T01:43:38;15.40;99.90
52615;DHT22;38508;53.158;6.614;2023-05-23T01:46:06;15.20;99.90
52615;DHT22;38508;53.158;6.614;2023-05-23T01:48:32;15.30;99.90
52615;DHT22;38508;53.158;6.614;2023-05-23T01:50:58;15.10;99.90
52615;DHT22;38508;53.158;6.614;2023-05-23T01:53:24;15.10;99.90
52615;DHT22;38508;53.158;6.614;2023-05-23T01:55:51;15.10;99.90
52615;DHT22;38508;53.158;6.614;2023-05-23T01:58:17;15.10;99.90
52615;DHT22;38508;53.158;6.614;2023-05-23T02:00:43;14.90;99.90
52615;DHT22;38508;53.158;6.614;2023-05-23T02:03:10;14.80;99.90
52615;DHT22;38508;53.158;6.614;2023-05-23T02:05:36;14.70;99.90
52615;DHT22;38508;53.158;6.614;2023-05-23T02:08:01;14.70;99.90
52615;DHT22;38508;53.158;6.614;2023-05-23T02:10:27;14.80;99.90
52615;DHT22;38508;53.158;6.614;2023-05-23T02:12:53;14.80;99.90
52615;DHT22;38508;53.158;6.614;2023-05-23T02:15:19;14.80;99.90
52615;DHT22;38508;53.158;6.614;2023-05-23T02:17:45;14.80;99.90
52615;DHT22;38508;53.158;6.614;2023-05-23T02:20:12;14.80;99.90
52615;DHT22;38508;53.158;6.614;2023-05-23T02:22:38;14.60;99.90
52615;DHT22;38508;53.158;6.614;2023-05-23T02:25:05;14.70;99.90
52615;DHT22;38508;53.158;6.614;2023-05-23T02:27:31;14.60;99.90
52615;DHT22;38508;53.158;6.614;2023-05-23T02:29:56;14.60;99.90
52615;DHT22;38508;53.158;6.614;2023-05-23T02:32:22;14.60;99.90
52615;DHT22;38508;53.158;6.614;2023-05-23T02:34:47;14.60;99.90
52615;DHT22;38508;53.158;6.614;2023-05-23T02:37:15;14.70;99.90
52615;DHT22;38508;53.158;6.614;2023-05-23T02:39:42;14.70;99.90
52615;DHT22;38508;53.158;6.614;2023-05-23T02:42:08;14.60;99.90
52615;DHT22;38508;53.158;6.614;2023-05-23T02:44:33;14.50;99.90
52615;DHT22;38508;53.158;6.614;2023-05-23T02:46:59;14.50;99.90
52615;DHT22;38508;53.158;6.614;2023-05-23T02:49:25;14.40;99.90
52615;DHT22;38508;53.158;6.614;2023-05-23T02:51:50;14.30;99.90
52615;DHT22;38508;53.158;6.614;2023-05-23T02:54:16;14.30;99.90
52615;DHT22;38508;53.158;6.614;2023-05-23T02:56:43;14.20;99.90
52615;DHT22;38508;53.158;6.614;2023-05-23T02:59:08;14.20;99.90
52615;DHT22;38508;53.158;6.614;2023-05-23T03:01:34;14.20;99.90
52615;DHT22;38508;53.158;6.614;2023-05-23T03:04:00;14.20;99.90
52615;DHT22;38508;53.158;6.614;2023-05-23T03:06:26;14.10;99.90
52615;DHT22;38508;53.158;6.614;2023-05-23T03:08:52;14.00;99.90
52615;DHT22;38508;53.158;6.614;2023-05-23T03:11:17;14.00;99.90
52615;DHT22;38508;53.158;6.614;2023-05-23T03:13:43;14.20;99.90
52615;DHT22;38508;53.158;6.614;2023-05-23T03:16:09;14.20;99.90
52615;DHT22;38508;53.158;6.614;2023-05-23T03:18:36;14.00;99.90
52615;DHT22;38508;53.158;6.614;2023-05-23T03:21:01;14.00;99.90
52615;DHT22;38508;53.158;6.614;2023-05-23T03:23:27;14.10;99.90
52615;DHT22;38508;53.158;6.614;2023-05-23T03:25:53;14.10;99.90
52615;DHT22;38508;53.158;6.614;2023-05-23T03:28:19;14.20;99.90
52615;DHT22;38508;53.158;6.614;2023-05-23T03:30:44;14.10;99.90
52615;DHT22;38508;53.158;6.614;2023-05-23T03:33:10;14.10;99.90
52615;DHT22;38508;53.158;6.614;2023-05-23T03:35:36;14.10;99.90
52615;DHT22;38508;53.158;6.614;2023-05-23T03:38:02;14.10;99.90
52615;DHT22;38508;53.158;6.614;2023-05-23T03:40:28;14.00;99.90
52615;DHT22;38508;53.158;6.614;2023-05-23T03:43:04;14.00;99.90
52615;DHT22;38508;53.158;6.614;2023-05-23T03:45:33;14.00;99.90
52615;DHT22;38508;53.158;6.614;2023-05-23T03:47:59;13.90;99.90
52615;DHT22;38508;53.158;6.614;2023-05-23T03:50:25;13.90;99.90
52615;DHT22;38508;53.158;6.614;2023-05-23T03:52:52;14.00;99.90
52615;DHT22;38508;53.158;6.614;2023-05-23T03:55:17;14.00;99.90
52615;DHT22;38508;53.158;6.614;2023-05-23T03:57:50;13.90;99.90
52615;DHT22;38508;53.158;6.614;2023-05-23T04:00:17;13.90;99.90
52615;DHT22;38508;53.158;6.614;2023-05-23T04:02:43;13.70;99.90
52615;DHT22;38508;53.158;6.614;2023-05-23T04:05:11;13.80;99.90
52615;DHT22;38508;53.158;6.614;2023-05-23T04:07:36;13.70;99.90
52615;DHT22;38508;53.158;6.614;2023-05-23T04:10:03;13.70;99.90
52615;DHT22;38508;53.158;6.614;2023-05-23T04:12:29;13.60;99.90
52615;DHT22;38508;53.158;6.614;2023-05-23T04:14:57;13.70;99.90
52615;DHT22;38508;53.158;6.614;2023-05-23T04:17:23;13.70;99.90
52615;DHT22;38508;53.158;6.614;2023-05-23T04:19:50;13.80;99.90
52615;DHT22;38508;53.158;6.614;2023-05-23T04:22:16;13.70;99.90
52615;DHT22;38508;53.158;6.614;2023-05-23T04:24:41;13.80;99.90
52615;DHT22;38508;53.158;6.614;2023-05-23T04:27:07;13.90;99.90
52615;DHT22;38508;53.158;6.614;2023-05-23T04:29:34;13.90;99.90
52615;DHT22;38508;53.158;6.614;2023-05-23T04:32:01;13.90;99.90
52615;DHT22;38508;53.158;6.614;2023-05-23T04:34:26;14.00;99.90
52615;DHT22;38508;53.158;6.614;2023-05-23T04:36:52;14.00;99.90
52615;DHT22;38508;53.158;6.614;2023-05-23T04:39:19;13.90;99.90
52615;DHT22;38508;53.158;6.614;2023-05-23T04:41:44;13.80;99.90
52615;DHT22;38508;53.158;6.614;2023-05-23T04:44:11;13.70;99.90
52615;DHT22;38508;53.158;6.614;2023-05-23T04:46:37;13.70;99.90
52615;DHT22;38508;53.158;6.614;2023-05-23T04:49:07;13.70;99.90
52615;DHT22;38508;53.158;6.614;2023-05-23T04:51:33;13.70;99.90
52615;DHT22;38508;53.158;6.614;2023-05-23T04:54:00;13.80;99.90
52615;DHT22;38508;53.158;6.614;2023-05-23T04:56:25;13.70;99.90
52615;DHT22;38508;53.158;6.614;2023-05-23T04:58:53;13.60;99.90
52615;DHT22;38508;53.158;6.614;2023-05-23T05:01:18;13.50;99.90
52615;DHT22;38508;53.158;6.614;2023-05-23T05:03:44;13.60;99.90
52615;DHT22;38508;53.158;6.614;2023-05-23T05:06:12;13.60;99.90
52615;DHT22;38508;53.158;6.614;2023-05-23T05:08:38;13.70;99.90
52615;DHT22;38508;53.158;6.614;2023-05-23T05:11:05;13.70;99.90
52615;DHT22;38508;53.158;6.614;2023-05-23T05:13:30;13.70;99.90
52615;DHT22;38508;53.158;6.614;2023-05-23T05:15:56;13.60;99.90
52615;DHT22;38508;53.158;6.614;2023-05-23T05:18:24;13.70;99.90
52615;DHT22;38508;53.158;6.614;2023-05-23T05:20:50;13.70;99.90
52615;DHT22;38508;53.158;6.614;2023-05-23T05:23:16;13.60;99.90
52615;DHT22;38508;53.158;6.614;2023-05-23T05:25:41;13.60;99.90
52615;DHT22;38508;53.158;6.614;2023-05-23T05:28:07;13.70;99.90
52615;DHT22;38508;53.158;6.614;2023-05-23T05:30:33;13.60;99.90
52615;DHT22;38508;53.158;6.614;2023-05-23T05:33:02;13.60;99.90
52615;DHT22;38508;53.158;6.614;2023-05-23T05:35:31;13.60;99.90
52615;DHT22;38508;53.158;6.614;2023-05-23T05:37:57;13.30;99.90
52615;DHT22;38508;53.158;6.614;2023-05-23T05:40:23;13.20;99.90
52615;DHT22;38508;53.158;6.614;2023-05-23T05:42:49;13.00;99.90
52615;DHT22;38508;53.158;6.614;2023-05-23T05:45:15;13.00;99.90
52615;DHT22;38508;53.158;6.614;2023-05-23T05:47:41;12.90;99.90
52615;DHT22;38508;53.158;6.614;2023-05-23T05:50:09;13.10;99.90
52615;DHT22;38508;53.158;6.614;2023-05-23T05:52:35;13.00;99.90
52615;DHT22;38508;53.158;6.614;2023-05-23T05:55:07;13.00;99.90
52615;DHT22;38508;53.158;6.614;2023-05-23T05:57:39;13.10;99.90
52615;DHT22;38508;53.158;6.614;2023-05-23T06:00:09;13.20;99.90
52615;DHT22;38508;53.158;6.614;2023-05-23T06:02:40;13.00;99.90
52615;DHT22;38508;53.158;6.614;2023-05-23T06:05:08;13.10;99.90
52615;DHT22;38508;53.158;6.614;2023-05-23T06:07:37;13.20;99.90
52615;DHT22;38508;53.158;6.614;2023-05-23T06:10:03;13.10;99.90
52615;DHT22;38508;53.158;6.614;2023-05-23T06:12:29;13.10;99.90
52615;DHT22;38508;53.158;6.614;2023-05-23T06:14:55;13.10;99.90
52615;DHT22;38508;53.158;6.614;2023-05-23T06:17:20;13.10;99.90
52615;DHT22;38508;53.158;6.614;2023-05-23T06:19:46;13.20;99.90
52615;DHT22;38508;53.158;6.614;2023-05-23T06:22:12;13.40;99.90
52615;DHT22;38508;53.158;6.614;2023-05-23T06:24:37;13.30;99.90
52615;DHT22;38508;53.158;6.614;2023-05-23T06:27:03;13.40;99.90
52615;DHT22;38508;53.158;6.614;2023-05-23T06:29:29;13.40;99.90
52615;DHT22;38508;53.158;6.614;2023-05-23T06:31:56;13.20;99.90
52615;DHT22;38508;53.158;6.614;2023-05-23T06:34:21;13.20;99.90
52615;DHT22;38508;53.158;6.614;2023-05-23T06:36:47;13.30;99.90
52615;DHT22;38508;53.158;6.614;2023-05-23T06:39:13;13.10;99.90
52615;DHT22;38508;53.158;6.614;2023-05-23T06:41:39;13.00;99.90
52615;DHT22;38508;53.158;6.614;2023-05-23T06:44:05;13.10;99.90
52615;DHT22;38508;53.158;6.614;2023-05-23T06:46:31;13.10;99.90
52615;DHT22;38508;53.158;6.614;2023-05-23T06:48:57;13.20;99.90
52615;DHT22;38508;53.158;6.614;2023-05-23T06:51:22;13.20;99.90
52615;DHT22;38508;53.158;6.614;2023-05-23T06:53:48;13.10;99.90
52615;DHT22;38508;53.158;6.614;2023-05-23T06:56:14;13.10;99.90
52615;DHT22;38508;53.158;6.614;2023-05-23T06:58:40;13.20;99.90
52615;DHT22;38508;53.158;6.614;2023-05-23T07:01:06;13.30;99.90
52615;DHT22;38508;53.158;6.614;2023-05-23T07:03:32;13.30;99.90
52615;DHT22;38508;53.158;6.614;2023-05-23T07:05:57;13.30;99.90
52615;DHT22;38508;53.158;6.614;2023-05-23T07:08:23;13.30;99.90
52615;DHT22;38508;53.158;6.614;2023-05-23T07:10:49;13.50;99.90
52615;DHT22;38508;53.158;6.614;2023-05-23T07:13:15;13.60;99.90
52615;DHT22;38508;53.158;6.614;2023-05-23T07:15:40;13.70;99.90
52615;DHT22;38508;53.158;6.614;2023-05-23T07:18:06;13.90;99.90
52615;DHT22;38508;53.158;6.614;2023-05-23T07:20:32;13.80;99.90
52615;DHT22;38508;53.158;6.614;2023-05-23T07:22:58;13.90;99.90
52615;DHT22;38508;53.158;6.614;2023-05-23T07:25:25;13.80;99.90
52615;DHT22;38508;53.158;6.614;2023-05-23T07:27:51;13.80;99.90
52615;DHT22;38508;53.158;6.614;2023-05-23T07:30:19;13.70;99.90
52615;DHT22;38508;53.158;6.614;2023-05-23T07:32:47;13.80;99.90
52615;DHT22;38508;53.158;6.614;2023-05-23T07:35:13;13.70;99.90
52615;DHT22;38508;53.158;6.614;2023-05-23T07:37:39;13.50;99.90
52615;DHT22;38508;53.158;6.614;2023-05-23T07:40:05;13.50;99.90
52615;DHT22;38508;53.158;6.614;2023-05-23T07:42:33;13.40;99.90
52615;DHT22;38508;53.158;6.614;2023-05-23T07:44:59;13.60;99.90
52615;DHT22;38508;53.158;6.614;2023-05-23T07:47:25;13.70;99.90
52615;DHT22;38508;53.158;6.614;2023-05-23T07:49:52;13.70;99.90
52615;DHT22;38508;53.158;6.614;2023-05-23T07:52:18;13.80;99.90
52615;DHT22;38508;53.158;6.614;2023-05-23T07:54:44;14.00;99.90
52615;DHT22;38508;53.158;6.614;2023-05-23T07:57:09;14.10;99.90
52615;DHT22;38508;53.158;6.614;2023-05-23T07:59:35;14.00;99.90
52615;DHT22;38508;53.158;6.614;2023-05-23T08:02:01;13.90;99.90
52615;DHT22;38508;53.158;6.614;2023-05-23T08:04:28;13.90;99.90
52615;DHT22;38508;53.158;6.614;2023-05-23T08:06:53;14.20;99.90
52615;DHT22;38508;53.158;6.614;2023-05-23T08:09:21;14.00;99.90
52615;DHT22;38508;53.158;6.614;2023-05-23T08:11:47;14.10;99.90
52615;DHT22;38508;53.158;6.614;2023-05-23T08:14:13;14.30;99.90
52615;DHT22;38508;53.158;6.614;2023-05-23T08:16:38;14.50;99.90
52615;DHT22;38508;53.158;6.614;2023-05-23T08:19:05;14.60;99.90
52615;DHT22;38508;53.158;6.614;2023-05-23T08:21:30;14.40;99.90
52615;DHT22;38508;53.158;6.614;2023-05-23T08:23:57;14.30;99.90
52615;DHT22;38508;53.158;6.614;2023-05-23T08:26:22;14.40;99.90
52615;DHT22;38508;53.158;6.614;2023-05-23T08:28:48;14.40;99.90
52615;DHT22;38508;53.158;6.614;2023-05-23T08:31:14;14.50;99.90
52615;DHT22;38508;53.158;6.614;2023-05-23T08:33:39;14.80;99.90
52615;DHT22;38508;53.158;6.614;2023-05-23T08:36:05;15.00;99.90
52615;DHT22;38508;53.158;6.614;2023-05-23T08:38:31;14.70;99.90
52615;DHT22;38508;53.158;6.614;2023-05-23T08:40:59;14.60;99.90
52615;DHT22;38508;53.158;6.614;2023-05-23T08:43:25;14.50;99.90
52615;DHT22;38508;53.158;6.614;2023-05-23T08:45:52;14.80;99.90
52615;DHT22;38508;53.158;6.614;2023-05-23T08:48:19;14.60;99.90
52615;DHT22;38508;53.158;6.614;2023-05-23T08:50:47;14.80;99.90
52615;DHT22;38508;53.158;6.614;2023-05-23T08:53:15;15.20;99.90
52615;DHT22;38508;53.158;6.614;2023-05-23T08:55:45;15.30;99.90
52615;DHT22;38508;53.158;6.614;2023-05-23T08:58:13;15.10;99.90
52615;DHT22;38508;53.158;6.614;2023-05-23T09:00:40;15.10;99.90
52615;DHT22;38508;53.158;6.614;2023-05-23T09:03:08;14.80;99.90
52615;DHT22;38508;53.158;6.614;2023-05-23T09:05:33;14.90;99.90
52615;DHT22;38508;53.158;6.614;2023-05-23T09:07:59;15.10;99.90
52615;DHT22;38508;53.158;6.614;2023-05-23T09:10:25;15.50;99.90
52615;DHT22;38508;53.158;6.614;2023-05-23T09:12:54;15.30;99.90
52615;DHT22;38508;53.158;6.614;2023-05-23T09:15:20;15.60;99.90
52615;DHT22;38508;53.158;6.614;2023-05-23T09:17:46;15.60;99.90
52615;DHT22;38508;53.158;6.614;2023-05-23T09:20:14;15.40;99.90
52615;DHT22;38508;53.158;6.614;2023-05-23T09:22:40;15.30;99.90
52615;DHT22;38508;53.158;6.614;2023-05-23T09:25:07;15.30;99.90
52615;DHT22;38508;53.158;6.614;2023-05-23T09:27:33;15.20;99.90
52615;DHT22;38508;53.158;6.614;2023-05-23T09:30:05;15.30;99.90
52615;DHT22;38508;53.158;6.614;2023-05-23T09:32:31;15.50;99.90
52615;DHT22;38508;53.158;6.614;2023-05-23T09:34:59;15.60;99.90
52615;DHT22;38508;53.158;6.614;2023-05-23T09:37:38;15.60;99.90
52615;DHT22;38508;53.158;6.614;2023-05-23T09:40:12;15.60;99.90
52615;DHT22;38508;53.158;6.614;2023-05-23T09:42:45;15.60;99.90
52615;DHT22;38508;53.158;6.614;2023-05-23T09:45:12;15.50;99.90
52615;DHT22;38508;53.158;6.614;2023-05-23T09:47:37;15.40;99.90
52615;DHT22;38508;53.158;6.614;2023-05-23T09:50:03;15.90;99.90
52615;DHT22;38508;53.158;6.614;2023-05-23T09:52:36;16.30;99.90
52615;DHT22;38508;53.158;6.614;2023-05-23T09:55:05;16.40;99.90
52615;DHT22;38508;53.158;6.614;2023-05-23T09:57:34;16.30;99.90
52615;DHT22;38508;53.158;6.614;2023-05-23T10:00:02;16.20;99.90
52615;DHT22;38508;53.158;6.614;2023-05-23T10:05:29;16.10;99.90
52615;DHT22;38508;53.158;6.614;2023-05-23T10:07:57;16.10;99.90
52615;DHT22;38508;53.158;6.614;2023-05-23T10:10:26;15.90;99.90
52615;DHT22;38508;53.158;6.614;2023-05-23T10:12:55;15.80;99.90
52615;DHT22;38508;53.158;6.614;2023-05-23T10:15:26;15.70;99.90
52615;DHT22;38508;53.158;6.614;2023-05-23T10:18:09;15.70;99.90
52615;DHT22;38508;53.158;6.614;2023-05-23T10:20:38;15.80;99.90
52615;DHT22;38508;53.158;6.614;2023-05-23T10:23:04;15.50;99.90
52615;DHT22;38508;53.158;6.614;2023-05-23T10:25:31;15.50;99.90
52615;DHT22;38508;53.158;6.614;2023-05-23T10:27:58;15.50;99.90
52615;DHT22;38508;53.158;6.614;2023-05-23T10:30:25;15.30;99.90
52615;DHT22;38508;53.158;6.614;2023-05-23T10:32:51;15.30;99.90
52615;DHT22;38508;53.158;6.614;2023-05-23T10:35:43;15.80;99.90
52615;DHT22;38508;53.158;6.614;2023-05-23T10:38:29;16.00;99.90
52615;DHT22;38508;53.158;6.614;2023-05-23T10:44:03;16.00;99.90
52615;DHT22;38508;53.158;6.614;2023-05-23T10:46:53;16.00;99.90
52615;DHT22;38508;53.158;6.614;2023-05-23T10:49:19;16.10;99.90
52615;DHT22;38508;53.158;6.614;2023-05-23T10:51:49;15.90;99.90
52615;DHT22;38508;53.158;6.614;2023-05-23T10:54:18;16.00;99.90
52615;DHT22;38508;53.158;6.614;2023-05-23T10:56:45;16.30;99.90
52615;DHT22;38508;53.158;6.614;2023-05-23T10:59:19;16.50;99.90
52615;DHT22;38508;53.158;6.614;2023-05-23T11:01:48;16.50;99.90
52615;DHT22;38508;53.158;6.614;2023-05-23T11:04:14;16.50;99.90
52615;DHT22;38508;53.158;6.614;2023-05-23T11:06:44;16.40;99.90
52615;DHT22;38508;53.158;6.614;2023-05-23T11:09:14;16.50;99.90
52615;DHT22;38508;53.158;6.614;2023-05-23T11:14:19;16.40;99.90
52615;DHT22;38508;53.158;6.614;2023-05-23T11:16:45;16.40;99.90
52615;DHT22;38508;53.158;6.614;2023-05-23T11:21:52;16.40;99.90
52615;DHT22;38508;53.158;6.614;2023-05-23T11:24:18;16.50;99.90
52615;DHT22;38508;53.158;6.614;2023-05-23T11:29:18;17.10;99.90
52615;DHT22;38508;53.158;6.614;2023-05-23T11:31:44;17.40;99.90
52615;DHT22;38508;53.158;6.614;2023-05-23T11:34:10;17.20;99.90
52615;DHT22;38508;53.158;6.614;2023-05-23T11:36:36;16.60;99.90
52615;DHT22;38508;53.158;6.614;2023-05-23T11:39:03;16.60;99.90
52615;DHT22;38508;53.158;6.614;2023-05-23T11:41:31;16.60;99.90
52615;DHT22;38508;53.158;6.614;2023-05-23T11:43:58;16.90;99.90
52615;DHT22;38508;53.158;6.614;2023-05-23T11:46:26;17.20;99.90
52615;DHT22;38508;53.158;6.614;2023-05-23T11:48:52;17.30;99.90
52615;DHT22;38508;53.158;6.614;2023-05-23T11:51:17;17.20;99.90
52615;DHT22;38508;53.158;6.614;2023-05-23T11:53:45;16.90;99.90
52615;DHT22;38508;53.158;6.614;2023-05-23T11:56:10;17.10;99.90
52615;DHT22;38508;53.158;6.614;2023-05-23T11:58:37;17.40;99.90
52615;DHT22;38508;53.158;6.614;2023-05-23T12:01:08;17.50;99.90
52615;DHT22;38508;53.158;6.614;2023-05-23T12:03:44;17.70;99.90
52615;DHT22;38508;53.158;6.614;2023-05-23T12:06:15;17.70;99.90
52615;DHT22;38508;53.158;6.614;2023-05-23T12:08:41;17.30;99.90
52615;DHT22;38508;53.158;6.614;2023-05-23T12:11:06;17.60;99.90
52615;DHT22;38508;53.158;6.614;2023-05-23T12:13:32;18.00;99.90
52615;DHT22;38508;53.158;6.614;2023-05-23T12:15:59;17.80;99.90
52615;DHT22;38508;53.158;6.614;2023-05-23T12:18:31;17.80;99.90
52615;DHT22;38508;53.158;6.614;2023-05-23T12:21:03;18.20;99.90
52615;DHT22;38508;53.158;6.614;2023-05-23T12:23:30;18.20;99.90
52615;DHT22;38508;53.158;6.614;2023-05-23T12:25:57;18.10;99.90
52615;DHT22;38508;53.158;6.614;2023-05-23T12:28:39;18.30;99.90
52615;DHT22;38508;53.158;6.614;2023-05-23T12:31:12;17.80;99.90
52615;DHT22;38508;53.158;6.614;2023-05-23T12:33:42;17.50;99.90
52615;DHT22;38508;53.158;6.614;2023-05-23T12:36:09;17.50;99.90
52615;DHT22;38508;53.158;6.614;2023-05-23T12:38:39;17.30;99.90
52615;DHT22;38508;53.158;6.614;2023-05-23T12:41:14;17.10;99.90
52615;DHT22;38508;53.158;6.614;2023-05-23T12:43:48;16.80;99.90
52615;DHT22;38508;53.158;6.614;2023-05-23T12:46:14;17.00;99.90
52615;DHT22;38508;53.158;6.614;2023-05-23T12:48:40;17.10;99.90
52615;DHT22;38508;53.158;6.614;2023-05-23T12:51:06;17.30;99.90
52615;DHT22;38508;53.158;6.614;2023-05-23T12:53:31;18.00;99.90
52615;DHT22;38508;53.158;6.614;2023-05-23T12:55:57;18.30;99.90
52615;DHT22;38508;53.158;6.614;2023-05-23T12:58:23;17.90;99.90
52615;DHT22;38508;53.158;6.614;2023-05-23T13:00:49;17.90;99.90
52615;DHT22;38508;53.158;6.614;2023-05-23T13:03:15;18.10;99.90
52615;DHT22;38508;53.158;6.614;2023-05-23T13:05:41;17.90;99.90
52615;DHT22;38508;53.158;6.614;2023-05-23T13:08:07;18.00;99.90
52615;DHT22;38508;53.158;6.614;2023-05-23T13:10:33;18.00;99.90
52615;DHT22;38508;53.158;6.614;2023-05-23T13:12:59;18.40;99.90
52615;DHT22;38508;53.158;6.614;2023-05-23T13:15:25;18.60;99.90
52615;DHT22;38508;53.158;6.614;2023-05-23T13:17:50;18.60;99.90
52615;DHT22;38508;53.158;6.614;2023-05-23T13:20:17;18.10;99.90
52615;DHT22;38508;53.158;6.614;2023-05-23T13:22:42;17.80;99.90
52615;DHT22;38508;53.158;6.614;2023-05-23T13:25:08;18.00;99.90
52615;DHT22;38508;53.158;6.614;2023-05-23T13:27:34;18.50;99.90
52615;DHT22;38508;53.158;6.614;2023-05-23T13:30:00;18.30;99.90
52615;DHT22;38508;53.158;6.614;2023-05-23T13:32:26;18.00;99.90
52615;DHT22;38508;53.158;6.614;2023-05-23T13:34:52;17.80;99.90
52615;DHT22;38508;53.158;6.614;2023-05-23T13:37:18;17.80;99.90
52615;DHT22;38508;53.158;6.614;2023-05-23T13:39:43;17.80;99.90
52615;DHT22;38508;53.158;6.614;2023-05-23T13:42:09;17.80;99.90
52615;DHT22;38508;53.158;6.614;2023-05-23T13:44:35;17.90;99.90
52615;DHT22;38508;53.158;6.614;2023-05-23T13:47:12;17.80;99.90
52615;DHT22;38508;53.158;6.614;2023-05-23T13:49:38;17.70;99.90
52615;DHT22;38508;53.158;6.614;2023-05-23T13:52:04;18.00;99.90
52615;DHT22;38508;53.158;6.614;2023-05-23T13:54:30;18.40;99.90
52615;DHT22;38508;53.158;6.614;2023-05-23T13:56:56;18.60;99.90
52615;DHT22;38508;53.158;6.614;2023-05-23T13:59:26;18.60;99.90
52615;DHT22;38508;53.158;6.614;2023-05-23T14:01:52;18.40;99.90
52615;DHT22;38508;53.158;6.614;2023-05-23T14:04:18;17.80;99.90
52615;DHT22;38508;53.158;6.614;2023-05-23T14:06:44;18.10;99.90
52615;DHT22;38508;53.158;6.614;2023-05-23T14:09:10;18.30;99.90
52615;DHT22;38508;53.158;6.614;2023-05-23T14:11:37;18.40;99.90
52615;DHT22;38508;53.158;6.614;2023-05-23T14:14:03;18.60;99.90
52615;DHT22;38508;53.158;6.614;2023-05-23T14:16:29;18.60;99.90
52615;DHT22;38508;53.158;6.614;2023-05-23T14:18:54;18.90;99.90
52615;DHT22;38508;53.158;6.614;2023-05-23T14:21:20;19.00;99.90
52615;DHT22;38508;53.158;6.614;2023-05-23T14:23:46;18.30;99.90
52615;DHT22;38508;53.158;6.614;2023-05-23T14:26:12;17.90;99.90
52615;DHT22;38508;53.158;6.614;2023-05-23T14:28:38;18.00;99.90
52615;DHT22;38508;53.158;6.614;2023-05-23T14:31:04;17.80;99.90
52615;DHT22;38508;53.158;6.614;2023-05-23T14:33:30;18.10;99.90
52615;DHT22;38508;53.158;6.614;2023-05-23T14:35:56;18.30;99.90
52615;DHT22;38508;53.158;6.614;2023-05-23T14:38:22;18.20;99.90
52615;DHT22;38508;53.158;6.614;2023-05-23T14:40:48;18.00;99.90
52615;DHT22;38508;53.158;6.614;2023-05-23T14:43:14;18.00;99.90
52615;DHT22;38508;53.158;6.614;2023-05-23T14:45:40;18.20;99.90
52615;DHT22;38508;53.158;6.614;2023-05-23T14:48:08;18.30;99.90
52615;DHT22;38508;53.158;6.614;2023-05-23T14:50:34;18.90;99.90
52615;DHT22;38508;53.158;6.614;2023-05-23T14:53:01;18.90;99.90
52615;DHT22;38508;53.158;6.614;2023-05-23T14:55:26;18.70;99.90
52615;DHT22;38508;53.158;6.614;2023-05-23T14:57:52;19.00;99.90
52615;DHT22;38508;53.158;6.614;2023-05-23T15:00:18;19.10;99.90
52615;DHT22;38508;53.158;6.614;2023-05-23T15:02:44;19.30;99.90
52615;DHT22;38508;53.158;6.614;2023-05-23T15:05:11;19.90;99.90
52615;DHT22;38508;53.158;6.614;2023-05-23T15:07:37;19.90;99.90
52615;DHT22;38508;53.158;6.614;2023-05-23T15:10:04;19.80;99.90
52615;DHT22;38508;53.158;6.614;2023-05-23T15:12:32;19.60;99.90
52615;DHT22;38508;53.158;6.614;2023-05-23T15:14:57;19.50;99.90
52615;DHT22;38508;53.158;6.614;2023-05-23T15:17:31;19.60;99.90
52615;DHT22;38508;53.158;6.614;2023-05-23T15:19:57;19.80;99.90
52615;DHT22;38508;53.158;6.614;2023-05-23T15:22:23;19.80;99.90
52615;DHT22;38508;53.158;6.614;2023-05-23T15:24:49;19.90;99.90
52615;DHT22;38508;53.158;6.614;2023-05-23T15:27:15;19.60;99.90
52615;DHT22;38508;53.158;6.614;2023-05-23T15:29:41;19.10;99.90
52615;DHT22;38508;53.158;6.614;2023-05-23T15:32:07;19.20;99.90
52615;DHT22;38508;53.158;6.614;2023-05-23T15:34:34;19.50;99.90
52615;DHT22;38508;53.158;6.614;2023-05-23T15:37:00;19.70;99.90
52615;DHT22;38508;53.158;6.614;2023-05-23T15:39:26;20.20;99.90
52615;DHT22;38508;53.158;6.614;2023-05-23T15:41:52;20.00;99.90
52615;DHT22;38508;53.158;6.614;2023-05-23T15:44:18;19.40;99.90
52615;DHT22;38508;53.158;6.614;2023-05-23T15:46:47;18.90;99.90
52615;DHT22;38508;53.158;6.614;2023-05-23T15:49:13;18.80;99.90
52615;DHT22;38508;53.158;6.614;2023-05-23T15:51:39;18.80;99.90